createdAt,value
2019-03-04T00:01:31.973Z,5.67
2019-03-04T00:04:03.669Z,5.17
2019-03-04T00:06:35.583Z,5.20
2019-03-04T00:09:07.825Z,4.78
2019-03-04T00:11:41.105Z,6.33
2019-03-04T00:14:12.909Z,5.40
2019-03-04T00:16:44.745Z,5.03
2019-03-04T00:19:18.727Z,4.97
2019-03-04T00:21:50.239Z,4.80
2019-03-04T00:24:22.176Z,5.30
2019-03-04T00:26:54.473Z,5.33
2019-03-04T00:29:26.091Z,5.30
2019-03-04T00:31:57.560Z,5.35
2019-03-04T00:34:29.105Z,5.45
2019-03-04T00:37:00.490Z,5.50
2019-03-04T00:39:32.331Z,4.78
2019-03-04T00:42:03.963Z,5.53
2019-03-04T00:44:35.572Z,5.67
2019-03-04T00:47:07.287Z,4.42
2019-03-04T00:49:38.810Z,4.45
2019-03-04T00:52:10.494Z,4.95
2019-03-04T00:54:42.198Z,5.30
2019-03-04T00:57:13.900Z,5.90
2019-03-04T00:59:45.352Z,5.10
2019-03-04T01:02:16.904Z,4.78
2019-03-04T01:04:48.652Z,4.87
2019-03-04T01:07:20.249Z,4.53
2019-03-04T01:09:51.968Z,5.85
2019-03-04T01:12:23.544Z,5.25
2019-03-04T01:14:55.062Z,5.50
2019-03-04T01:17:27.684Z,5.35
2019-03-04T01:19:59.405Z,5.60
2019-03-04T01:22:31.282Z,5.87
2019-03-04T01:25:03.150Z,5.85
2019-03-04T01:27:34.697Z,4.22
2019-03-04T01:30:07.633Z,4.55
2019-03-04T01:32:39.117Z,5.45
2019-03-04T01:35:11.100Z,5.72
2019-03-04T01:37:42.687Z,5.30
2019-03-04T01:40:16.275Z,6.42
2019-03-04T01:42:47.888Z,5.78
2019-03-04T01:45:19.727Z,5.35
2019-03-04T01:47:51.506Z,5.62
2019-03-04T01:50:24.215Z,5.15
2019-03-04T01:52:56.015Z,6.03
2019-03-04T01:55:33.126Z,5.05
2019-03-04T01:58:04.965Z,5.37
2019-03-04T02:00:36.851Z,5.25
2019-03-04T02:03:08.852Z,5.00
2019-03-04T02:05:40.539Z,5.28
2019-03-04T02:08:12.050Z,5.05
2019-03-04T02:10:43.533Z,4.42
2019-03-04T02:13:14.967Z,5.42
2019-03-04T02:15:46.404Z,4.40
2019-03-04T02:18:18.109Z,5.25
2019-03-04T02:20:49.713Z,4.80
2019-03-04T02:23:21.282Z,4.70
2019-03-04T02:26:30.953Z,4.97
2019-03-04T02:29:02.493Z,4.33
2019-03-04T02:31:33.965Z,4.47
2019-03-04T02:34:05.683Z,4.33
2019-03-04T02:36:37.409Z,5.00
2019-03-04T02:39:08.933Z,4.22
2019-03-04T02:41:41.073Z,3.87
2019-03-04T02:44:12.547Z,4.70
2019-03-04T02:46:44.309Z,3.85
2019-03-04T02:49:16.029Z,4.62
2019-03-04T02:51:48.598Z,4.12
2019-03-04T02:54:20.203Z,5.60
2019-03-04T02:56:51.771Z,4.42
2019-03-04T02:59:23.502Z,4.17
2019-03-04T03:01:54.974Z,4.05
2019-03-04T03:04:26.776Z,4.30
2019-03-04T03:06:58.395Z,5.22
2019-03-04T03:09:29.989Z,4.72
2019-03-04T03:12:01.428Z,4.42
2019-03-04T03:14:32.749Z,4.50
2019-03-04T03:17:04.310Z,4.12
2019-03-04T03:19:35.710Z,3.87
2019-03-04T03:22:07.381Z,3.87
2019-03-04T03:24:39.057Z,4.10
2019-03-04T03:27:10.822Z,3.50
2019-03-04T03:29:43.474Z,3.95
2019-03-04T03:32:16.180Z,4.62
2019-03-04T03:34:47.735Z,4.75
2019-03-04T03:37:19.476Z,4.42
2019-03-04T03:39:51.755Z,6.03
2019-03-04T03:42:23.382Z,5.08
2019-03-04T03:44:55.068Z,6.28
2019-03-04T03:47:26.757Z,5.92
2019-03-04T03:49:58.334Z,6.10
2019-03-04T03:52:29.978Z,4.87
2019-03-04T03:55:01.622Z,4.62
2019-03-04T03:57:33.200Z,6.35
2019-03-04T04:00:08.537Z,5.42
2019-03-04T04:02:40.553Z,5.03
2019-03-04T04:05:12.077Z,5.37
2019-03-04T04:07:43.609Z,4.53
2019-03-04T04:10:18.022Z,4.20
2019-03-04T04:12:50.843Z,4.25
2019-03-04T04:15:22.479Z,5.50
2019-03-04T04:17:55.451Z,6.87
2019-03-04T04:20:27.220Z,7.25
2019-03-04T04:22:58.999Z,6.78
2019-03-04T04:25:31.577Z,6.08
2019-03-04T04:28:04.662Z,7.60
2019-03-04T04:30:36.969Z,8.03
2019-03-04T04:33:08.433Z,7.70
2019-03-04T04:35:40.027Z,7.78
2019-03-04T04:38:11.481Z,6.70
2019-03-04T04:40:43.226Z,6.45
2019-03-04T04:43:14.812Z,5.85
2019-03-04T04:45:46.700Z,4.53
2019-03-04T04:48:18.105Z,5.12
2019-03-04T04:50:49.771Z,4.05
2019-03-04T04:53:21.216Z,7.10
2019-03-04T04:55:52.801Z,7.30
2019-03-04T04:58:24.386Z,6.45
2019-03-04T05:00:55.929Z,6.95
2019-03-04T05:03:28.551Z,5.67
2019-03-04T05:05:59.899Z,5.60
2019-03-04T05:08:31.455Z,4.65
2019-03-04T05:11:03.117Z,4.90
2019-03-04T05:13:34.714Z,4.97
2019-03-04T05:16:06.447Z,4.55
2019-03-04T05:18:38.090Z,3.65
2019-03-04T05:21:09.484Z,4.17
2019-03-04T05:23:40.866Z,3.55
2019-03-04T05:26:12.295Z,3.35
2019-03-04T05:28:43.801Z,3.58
2019-03-04T05:31:15.582Z,3.22
2019-03-04T05:33:47.219Z,3.80
2019-03-04T05:36:18.625Z,3.87
2019-03-04T05:38:51.426Z,3.83
2019-03-04T05:41:22.907Z,4.05
2019-03-04T05:43:55.975Z,3.55
2019-03-04T05:46:27.531Z,2.92
2019-03-04T05:48:58.816Z,3.20
2019-03-04T05:51:30.642Z,3.20
2019-03-04T05:54:02.545Z,3.60
2019-03-04T05:56:34.093Z,2.95
2019-03-04T05:59:06.992Z,3.37
2019-03-04T06:01:40.429Z,3.50
2019-03-04T06:04:13.320Z,4.37
2019-03-04T06:06:46.416Z,4.30
2019-03-04T06:09:17.864Z,3.80
2019-03-04T06:11:49.162Z,3.00
2019-03-04T06:14:23.159Z,3.75
2019-03-04T06:16:54.658Z,4.42
2019-03-04T06:19:26.954Z,3.62
2019-03-04T06:21:58.549Z,3.60
2019-03-04T06:24:30.302Z,3.70
2019-03-04T06:27:01.640Z,3.72
2019-03-04T06:29:33.125Z,3.22
2019-03-04T06:32:04.951Z,3.83
2019-03-04T06:34:36.676Z,4.05
2019-03-04T06:37:08.508Z,3.77
2019-03-04T06:39:40.339Z,4.08
2019-03-04T06:42:13.002Z,2.98
2019-03-04T06:44:44.838Z,3.40
2019-03-04T06:47:16.535Z,5.12
2019-03-04T06:49:48.124Z,5.40
2019-03-04T06:52:19.707Z,6.55
2019-03-04T06:55:23.421Z,6.08
2019-03-04T06:57:55.194Z,5.40
2019-03-04T07:01:08.658Z,5.37
2019-03-04T07:03:53.452Z,4.62
2019-03-04T07:06:25.481Z,4.75
2019-03-04T07:09:07.739Z,3.60
2019-03-04T07:11:41.483Z,5.37
2019-03-04T07:14:13.200Z,4.12
2019-03-04T07:16:45.048Z,4.50
2019-03-04T07:19:29.354Z,4.58
2019-03-04T07:22:01.382Z,3.83
2019-03-04T07:24:33.127Z,4.17
2019-03-04T07:27:04.987Z,5.47
2019-03-04T07:29:36.546Z,8.13
2019-03-04T07:32:08.087Z,7.30
2019-03-04T07:34:39.836Z,6.17
2019-03-04T07:37:11.553Z,5.45
2019-03-04T07:39:43.519Z,4.72
2019-03-04T07:42:16.735Z,5.03
2019-03-04T07:44:48.173Z,5.97
2019-03-04T07:47:19.703Z,6.40
2019-03-04T07:49:51.590Z,5.08
2019-03-04T07:52:23.083Z,4.97
2019-03-04T07:54:55.024Z,4.80
2019-03-04T07:57:26.641Z,3.22
2019-03-04T07:59:58.254Z,4.10
2019-03-04T08:02:29.741Z,3.27
2019-03-04T08:05:01.274Z,3.10
2019-03-04T08:07:41.175Z,3.90
2019-03-04T08:11:20.901Z,4.00
2019-03-04T08:13:56.425Z,3.15
2019-03-04T08:16:28.096Z,3.40
2019-03-04T08:18:59.543Z,2.47
2019-03-04T08:21:31.279Z,3.05
2019-03-04T08:24:02.685Z,3.42
2019-03-04T08:26:34.046Z,3.37
2019-03-04T08:29:06.143Z,3.50
2019-03-04T08:31:37.610Z,3.27
2019-03-04T08:34:09.490Z,4.65
2019-03-04T08:36:40.849Z,3.42
2019-03-04T08:39:12.592Z,3.90
2019-03-04T08:41:44.251Z,3.10
2019-03-04T08:44:15.901Z,3.87
2019-03-04T08:46:47.308Z,3.65
2019-03-04T08:49:18.673Z,2.72
2019-03-04T08:51:50.144Z,4.17
2019-03-04T08:54:23.747Z,6.10
2019-03-04T08:57:03.610Z,4.65
2019-03-04T08:59:28.431Z,5.55
2019-03-04T09:02:00.174Z,6.78
2019-03-04T09:04:32.757Z,5.12
2019-03-04T09:07:04.201Z,5.00
2019-03-04T09:09:35.611Z,5.20
2019-03-04T09:12:07.289Z,4.87
2019-03-04T09:14:39.111Z,3.55
2019-03-04T09:17:11.138Z,3.85
2019-03-04T09:19:42.677Z,4.00
2019-03-04T09:22:14.133Z,2.85
2019-03-04T09:24:45.527Z,4.03
2019-03-04T09:27:17.295Z,4.17
2019-03-04T09:29:49.074Z,4.45
2019-03-04T09:32:20.781Z,3.12
2019-03-04T09:34:52.559Z,2.98
2019-03-04T09:37:23.933Z,2.92
2019-03-04T09:39:55.425Z,3.02
2019-03-04T09:42:28.127Z,3.00
2019-03-04T09:44:59.911Z,3.00
2019-03-04T09:47:31.417Z,3.02
2019-03-04T09:50:06.039Z,3.42
2019-03-04T09:52:37.584Z,2.80
2019-03-04T09:55:10.400Z,3.00
2019-03-04T09:57:42.053Z,3.80
2019-03-04T10:00:40.438Z,3.20
2019-03-04T10:03:53.310Z,2.90
2019-03-04T10:07:23.763Z,3.20
2019-03-04T10:10:23.491Z,3.60
2019-03-04T10:13:18.312Z,3.42
2019-03-04T10:16:28.569Z,3.33
2019-03-04T10:19:37.246Z,3.42
2019-03-04T10:22:31.011Z,4.83
2019-03-04T10:25:12.070Z,3.87
2019-03-04T10:28:28.279Z,3.87
2019-03-04T10:31:46.682Z,4.42
2019-03-04T10:34:58.537Z,3.98
2019-03-04T10:37:54.439Z,4.97
2019-03-04T10:41:13.439Z,5.20
2019-03-04T10:44:53.130Z,5.40
2019-03-04T10:47:24.649Z,3.47
2019-03-04T10:49:56.134Z,3.35
2019-03-04T10:52:27.927Z,2.80
2019-03-04T10:54:59.595Z,3.10
2019-03-04T10:57:31.197Z,2.52
2019-03-04T11:00:02.755Z,2.65
2019-03-04T11:02:36.224Z,2.83
2019-03-04T11:05:07.854Z,2.40
2019-03-04T11:07:39.288Z,3.02
2019-03-04T11:10:10.950Z,4.47
2019-03-04T11:12:43.323Z,2.72
2019-03-04T11:15:23.069Z,3.58
2019-03-04T11:17:56.561Z,5.78
2019-03-04T11:20:29.260Z,5.37
2019-03-04T11:23:01.037Z,5.15
2019-03-04T11:25:32.558Z,4.87
2019-03-04T11:28:04.474Z,7.25
2019-03-04T11:30:36.322Z,7.37
2019-03-04T11:33:07.999Z,7.20
2019-03-04T11:35:39.570Z,7.87
2019-03-04T11:38:40.549Z,7.85
2019-03-04T11:41:14.947Z,5.45
2019-03-04T11:43:46.788Z,4.87
2019-03-04T11:46:20.301Z,4.83
2019-03-04T11:48:52.940Z,5.10
2019-03-04T11:51:24.455Z,5.70
2019-03-04T11:53:56.374Z,4.72
2019-03-04T11:56:27.952Z,3.40
2019-03-04T11:58:59.587Z,4.37
2019-03-04T12:01:32.854Z,5.28
2019-03-04T12:04:04.840Z,4.47
2019-03-04T12:06:36.604Z,7.67
2019-03-04T12:09:11.812Z,5.80
2019-03-04T12:11:43.965Z,4.40
2019-03-04T12:14:15.348Z,3.98
2019-03-04T12:16:47.437Z,4.10
2019-03-04T12:19:18.892Z,6.90
2019-03-04T12:21:51.832Z,5.35
2019-03-04T12:24:23.699Z,8.88
2019-03-04T12:26:55.471Z,5.00
2019-03-04T12:29:26.938Z,7.87
2019-03-04T12:32:06.217Z,5.08
2019-03-04T12:34:37.662Z,4.78
2019-03-04T12:37:09.213Z,7.15
2019-03-04T12:39:40.622Z,6.17
2019-03-04T12:42:14.001Z,5.55
2019-03-04T12:53:15.818Z,3.45
2019-03-04T12:55:47.375Z,3.27
2019-03-04T12:58:18.721Z,3.72
2019-03-04T13:00:50.482Z,4.92
2019-03-04T13:03:23.691Z,4.28
2019-03-04T13:05:55.253Z,3.65
2019-03-04T13:08:26.707Z,3.52
2019-03-04T13:10:58.667Z,4.20
2019-03-04T13:13:30.586Z,3.87
2019-03-04T13:16:03.514Z,3.90
2019-03-04T13:18:35.380Z,3.87
2019-03-04T13:21:07.030Z,3.20
2019-03-04T13:23:38.611Z,3.25
2019-03-04T13:26:10.842Z,3.37
2019-03-04T13:28:42.431Z,3.50
2019-03-04T13:31:14.056Z,3.92
2019-03-04T13:33:45.702Z,7.05
2019-03-04T13:36:18.192Z,4.03
2019-03-04T13:38:49.738Z,10.82
2019-03-04T13:41:21.275Z,4.90
2019-03-04T13:43:52.836Z,3.30
2019-03-04T13:46:24.164Z,4.50
2019-03-04T13:48:56.027Z,4.70
2019-03-04T13:51:27.512Z,13.88
2019-03-04T13:53:59.055Z,5.58
2019-03-04T13:56:30.569Z,3.25
2019-03-04T13:59:03.620Z,4.12
2019-03-04T14:01:35.191Z,5.08
2019-03-04T14:04:06.890Z,5.67
2019-03-04T14:06:38.393Z,5.60
2019-03-04T14:09:11.840Z,7.33
2019-03-04T14:11:44.728Z,5.78
2019-03-04T14:14:16.207Z,3.50
2019-03-04T14:16:47.652Z,4.17
2019-03-04T14:19:19.603Z,3.95
2019-03-04T14:21:51.348Z,4.60
2019-03-04T14:24:23.293Z,6.08
2019-03-04T14:26:54.800Z,6.80
2019-03-04T14:29:26.401Z,6.87
2019-03-04T14:31:58.321Z,8.10
2019-03-04T14:34:30.916Z,9.83
2019-03-04T14:37:03.374Z,12.45
2019-03-04T14:39:34.973Z,8.18
2019-03-04T14:42:06.643Z,7.67
2019-03-04T14:44:38.257Z,7.35
2019-03-04T14:47:09.813Z,8.50
2019-03-04T14:49:44.771Z,5.60
2019-03-04T14:52:14.826Z,5.05
2019-03-04T14:54:46.834Z,5.05
2019-03-04T14:57:18.657Z,3.60
2019-03-04T14:59:50.502Z,4.17
2019-03-04T15:02:22.187Z,4.70
2019-03-04T15:04:54.122Z,3.85
2019-03-04T15:07:26.166Z,3.35
2019-03-04T15:09:57.870Z,3.40
2019-03-04T15:12:29.425Z,3.65
2019-03-04T15:15:01.276Z,2.98
2019-03-04T15:17:32.953Z,3.17
2019-03-04T15:20:09.630Z,3.90
2019-03-04T15:22:41.316Z,3.33
2019-03-04T15:25:15.591Z,4.20
2019-03-04T15:27:47.148Z,5.53
2019-03-04T15:30:19.112Z,8.88
2019-03-04T15:32:50.926Z,1.50
2019-03-04T15:35:22.461Z,2.00
2019-03-04T15:37:54.411Z,1.20
2019-03-04T15:40:26.863Z,1.20
2019-03-04T15:42:58.551Z,1.87
2019-03-04T15:45:30.233Z,1.32
2019-03-04T15:48:01.907Z,1.05
2019-03-04T15:50:33.376Z,1.70
2019-03-04T15:53:05.377Z,1.92
2019-03-04T15:55:37.500Z,2.22
2019-03-04T15:58:09.030Z,2.00
2019-03-04T16:00:40.821Z,2.90
2019-03-04T16:03:12.562Z,2.45
2019-03-04T16:05:44.345Z,2.30
2019-03-04T16:08:16.054Z,2.95
2019-03-04T16:10:47.585Z,1.80
2019-03-04T16:13:19.114Z,1.72
2019-03-04T16:15:50.836Z,1.90
2019-03-04T16:18:22.487Z,1.30
2019-03-04T16:20:55.626Z,2.00
2019-03-04T16:23:27.192Z,1.80
2019-03-04T16:25:58.691Z,1.75
2019-03-04T16:28:30.505Z,1.70
2019-03-04T16:31:01.887Z,2.12
2019-03-04T16:33:33.992Z,2.22
2019-03-04T16:36:05.736Z,3.40
2019-03-04T16:38:37.300Z,2.42
2019-03-04T16:41:09.332Z,6.92
2019-03-04T16:43:40.847Z,4.58
2019-03-04T16:46:12.642Z,13.08
2019-03-04T16:48:44.109Z,32.50
2019-03-04T16:51:15.954Z,31.68
2019-03-04T16:53:47.585Z,15.63
2019-03-04T16:56:19.264Z,11.73
2019-03-04T16:58:50.646Z,6.05
2019-03-04T17:01:22.037Z,3.35
2019-03-04T17:03:53.641Z,2.40
2019-03-04T17:06:25.052Z,2.40
2019-03-04T17:08:56.950Z,2.58
2019-03-04T17:11:28.805Z,2.60
2019-03-04T17:14:00.714Z,4.00
2019-03-04T17:16:32.463Z,6.50
2019-03-04T17:19:04.863Z,4.78
2019-03-04T17:21:36.295Z,4.05
2019-03-04T17:24:08.423Z,6.67
2019-03-04T17:26:40.002Z,8.15
2019-03-04T17:29:11.742Z,7.03
2019-03-04T17:31:43.207Z,7.67
2019-03-04T17:34:14.735Z,8.33
2019-03-04T17:36:46.539Z,7.62
2019-03-04T17:39:18.292Z,8.20
2019-03-04T17:41:49.822Z,7.28
2019-03-04T17:44:25.284Z,15.10
2019-03-04T17:46:57.137Z,11.30
2019-03-04T17:49:28.599Z,11.60
2019-03-04T17:52:00.428Z,8.50
2019-03-04T17:54:32.072Z,6.17
2019-03-04T17:57:03.530Z,6.87
2019-03-04T17:59:35.450Z,11.50
2019-03-04T18:02:07.470Z,8.25
2019-03-04T18:04:39.995Z,11.48
2019-03-04T18:07:12.287Z,6.97
2019-03-04T18:09:43.669Z,5.42
2019-03-04T18:12:16.365Z,4.40
2019-03-04T18:14:47.910Z,3.52
2019-03-04T18:17:19.730Z,3.37
2019-03-04T18:19:51.313Z,4.03
2019-03-04T18:22:22.775Z,4.08
2019-03-04T18:24:54.203Z,9.83
2019-03-04T18:27:35.770Z,9.75
2019-03-04T18:30:29.270Z,6.75
2019-03-04T18:33:20.418Z,6.37
2019-03-04T18:36:14.015Z,6.58
2019-03-04T18:39:24.909Z,5.95
2019-03-04T18:42:25.651Z,6.70
2019-03-04T18:45:29.177Z,4.40
2019-03-04T18:48:59.397Z,4.62
2019-03-04T18:51:34.814Z,6.05
2019-03-04T18:54:11.918Z,6.53
2019-03-04T18:56:43.438Z,4.55
2019-03-04T18:59:15.224Z,4.00
2019-03-04T19:01:46.829Z,3.60
2019-03-04T19:04:19.670Z,3.20
2019-03-04T19:06:51.341Z,3.52
2019-03-04T19:09:23.027Z,2.75
2019-03-04T19:11:54.918Z,4.37
2019-03-04T19:14:26.685Z,3.85
2019-03-04T19:16:58.316Z,6.00
2019-03-04T19:19:31.513Z,5.28
2019-03-04T19:22:03.063Z,7.33
2019-03-04T19:24:34.816Z,7.00
2019-03-04T19:27:06.462Z,4.00
2019-03-04T19:29:38.309Z,3.47
2019-03-04T19:32:09.762Z,3.72
2019-03-04T19:34:41.331Z,7.05
2019-03-04T19:37:12.918Z,5.42
2019-03-04T19:39:44.453Z,4.92
2019-03-04T19:42:16.207Z,2.65
2019-03-04T19:44:47.734Z,2.60
2019-03-04T19:47:19.366Z,2.08
2019-03-04T19:49:51.186Z,1.87
2019-03-04T19:52:22.854Z,1.62
2019-03-04T19:54:54.442Z,1.17
2019-03-04T19:57:26.093Z,0.57
2019-03-04T19:59:57.835Z,0.57
2019-03-04T20:02:30.574Z,0.47
2019-03-04T20:05:02.493Z,0.70
2019-03-04T20:07:34.885Z,0.62
2019-03-04T20:10:09.435Z,0.47
2019-03-04T20:12:41.482Z,0.80
2019-03-04T20:15:16.708Z,0.50
2019-03-04T20:17:48.508Z,1.07
2019-03-04T20:20:21.585Z,0.65
2019-03-04T20:22:53.392Z,0.57
2019-03-04T20:25:25.568Z,0.40
2019-03-04T20:27:58.371Z,0.60
2019-03-04T20:30:30.215Z,0.72
2019-03-04T20:33:02.405Z,10.35
2019-03-04T20:35:34.157Z,5.60
2019-03-04T20:38:05.980Z,9.30
2019-03-04T20:40:37.627Z,3.87
2019-03-04T20:43:10.896Z,17.57
2019-03-04T20:45:42.531Z,2.10
2019-03-04T20:48:14.598Z,1.20
2019-03-04T20:50:46.633Z,1.05
2019-03-04T20:53:18.367Z,1.57
2019-03-04T20:55:50.249Z,1.10
2019-03-04T20:58:22.031Z,1.35
2019-03-04T21:00:53.654Z,1.47
2019-03-04T21:03:34.593Z,1.17
2019-03-04T21:05:58.988Z,1.50
2019-03-04T21:08:30.570Z,1.80
2019-03-04T21:11:01.941Z,1.25
2019-03-04T21:13:35.879Z,1.22
2019-03-04T21:16:09.828Z,1.42
2019-03-04T21:18:41.895Z,1.82
2019-03-04T21:21:14.715Z,0.82
2019-03-04T21:23:48.431Z,1.30
2019-03-04T21:26:22.635Z,1.62
2019-03-04T21:29:30.564Z,1.70
2019-03-04T21:32:23.092Z,2.55
2019-03-04T21:35:50.665Z,1.82
2019-03-04T21:38:28.865Z,2.20
2019-03-04T21:41:21.325Z,1.57
2019-03-04T21:44:13.822Z,1.95
2019-03-04T21:47:10.371Z,2.60
2019-03-04T21:49:47.913Z,2.02
2019-03-04T21:53:07.059Z,3.22
2019-03-04T21:56:12.236Z,2.95
2019-03-04T21:58:43.881Z,2.58
2019-03-04T22:01:25.897Z,2.00
2019-03-04T22:03:57.648Z,3.02
2019-03-04T22:06:29.547Z,2.60
2019-03-04T22:09:01.333Z,2.05
2019-03-04T22:11:34.846Z,3.05
2019-03-04T22:14:06.664Z,2.02
2019-03-04T22:16:39.389Z,1.95
2019-03-04T22:19:10.978Z,2.37
2019-03-04T22:21:42.448Z,2.40
2019-03-04T22:24:14.071Z,3.05
2019-03-04T22:26:46.120Z,2.12
2019-03-04T22:29:17.713Z,2.27
2019-03-04T22:31:49.334Z,3.35
2019-03-04T22:34:21.295Z,1.72
2019-03-04T22:36:52.865Z,2.33
2019-03-04T22:39:24.629Z,2.50
2019-03-04T22:41:56.479Z,2.80
2019-03-04T22:44:27.882Z,2.62
2019-03-04T22:46:59.578Z,2.35
2019-03-04T22:49:31.115Z,3.22
2019-03-04T22:52:02.970Z,3.45
2019-03-04T22:54:34.962Z,2.80
2019-03-04T22:57:06.661Z,2.72
2019-03-04T22:59:39.361Z,2.10
2019-03-04T23:02:11.223Z,2.87
2019-03-04T23:04:48.612Z,2.42
2019-03-04T23:07:34.776Z,2.50
2019-03-04T23:10:33.892Z,2.47
2019-03-04T23:13:18.321Z,2.10
2019-03-04T23:15:51.503Z,1.90
2019-03-04T23:18:23.116Z,2.27
2019-03-04T23:20:54.717Z,2.50
2019-03-04T23:23:26.254Z,2.27
2019-03-04T23:25:58.054Z,2.42
2019-03-04T23:28:29.617Z,2.77
2019-03-04T23:31:02.659Z,2.55
2019-03-04T23:33:34.264Z,2.52
2019-03-04T23:36:05.906Z,2.02
2019-03-04T23:38:37.346Z,2.20
2019-03-04T23:41:09.383Z,2.67
2019-03-04T23:43:41.339Z,2.20
2019-03-04T23:46:13.045Z,1.95
2019-03-04T23:48:44.779Z,2.50
2019-03-04T23:51:16.441Z,2.17
2019-03-04T23:53:47.950Z,1.87
2019-03-04T23:56:19.548Z,1.90
2019-03-04T23:58:50.977Z,1.62
